createdAt,value
2023-03-26T00:01:46.461Z,4.15
2023-03-26T00:04:14.268Z,4.22
2023-03-26T00:06:43.259Z,3.95
2023-03-26T00:09:13.815Z,4.05
2023-03-26T00:11:41.575Z,4.00
2023-03-26T00:14:09.364Z,3.92
2023-03-26T00:16:37.120Z,3.50
2023-03-26T00:19:04.991Z,3.78
2023-03-26T00:21:32.731Z,3.92
2023-03-26T00:24:04.830Z,4.60
2023-03-26T00:26:33.509Z,4.63
2023-03-26T00:29:03.182Z,4.75
2023-03-26T00:31:31.359Z,3.70
2023-03-26T00:33:59.488Z,4.43
2023-03-26T00:36:27.302Z,4.07
2023-03-26T00:38:56.181Z,4.80
2023-03-26T00:41:30.702Z,4.43
2023-03-26T00:44:00.961Z,4.55
2023-03-26T00:46:30.505Z,5.30
2023-03-26T00:48:58.664Z,4.55
2023-03-26T00:51:27.675Z,3.42
2023-03-26T00:53:55.740Z,4.70
2023-03-26T00:56:24.836Z,5.07
2023-03-26T00:58:52.758Z,3.90
2023-03-26T01:01:27.187Z,4.97
2023-03-26T01:04:08.117Z,4.57
2023-03-26T01:06:41.905Z,5.00
2023-03-26T01:09:16.923Z,5.30
2023-03-26T01:11:46.032Z,5.38
2023-03-26T01:14:18.069Z,4.93
2023-03-26T01:16:49.763Z,5.10
2023-03-26T01:19:24.792Z,5.78
2023-03-26T01:21:52.445Z,5.38
2023-03-26T01:24:22.085Z,4.95
2023-03-26T01:26:59.723Z,4.75
2023-03-26T01:29:35.848Z,4.43
2023-03-26T01:32:14.462Z,4.97
2023-03-26T01:34:59.087Z,5.32
2023-03-26T01:37:37.359Z,5.50
2023-03-26T01:40:18.642Z,5.65
2023-03-26T01:42:52.454Z,5.53
2023-03-26T01:45:23.903Z,5.05
2023-03-26T01:47:51.727Z,6.20
2023-03-26T01:50:19.481Z,5.68
2023-03-26T01:52:47.273Z,5.57
2023-03-26T01:55:16.414Z,5.43
2023-03-26T01:57:55.599Z,4.13
2023-03-26T02:00:29.401Z,4.53
2023-03-26T02:03:08.801Z,5.43
2023-03-26T02:05:43.785Z,5.15
2023-03-26T02:08:20.993Z,5.70
2023-03-26T02:10:54.106Z,5.07
2023-03-26T02:13:21.783Z,5.28
2023-03-26T02:15:57.456Z,5.68
2023-03-26T02:18:25.515Z,5.28
2023-03-26T02:20:53.805Z,5.85
2023-03-26T02:23:21.534Z,4.72
2023-03-26T02:25:50.550Z,5.38
2023-03-26T02:28:19.027Z,5.85
2023-03-26T02:30:47.366Z,5.88
2023-03-26T02:33:17.210Z,4.93
2023-03-26T02:35:45.957Z,5.93
2023-03-26T02:38:14.857Z,5.63
2023-03-26T02:40:43.336Z,6.00
2023-03-26T02:43:12.512Z,6.25
2023-03-26T02:45:41.009Z,4.40
2023-03-26T02:48:41.415Z,4.93
2023-03-26T02:51:18.121Z,6.03
2023-03-26T02:54:06.916Z,5.75
2023-03-26T02:56:50.736Z,4.90
2023-03-26T02:59:46.251Z,5.30
2023-03-26T03:02:44.309Z,5.20
2023-03-26T03:05:38.046Z,4.90
2023-03-26T03:08:30.597Z,5.53
2023-03-26T03:11:22.121Z,3.78
2023-03-26T03:13:51.321Z,4.10
2023-03-26T03:16:25.876Z,5.05
2023-03-26T03:18:57.890Z,5.22
2023-03-26T03:21:31.453Z,5.13
2023-03-26T03:24:00.156Z,4.95
2023-03-26T03:26:30.468Z,4.40
2023-03-26T03:29:02.999Z,5.22
2023-03-26T03:31:32.077Z,4.95
2023-03-26T03:34:04.849Z,4.82
2023-03-26T03:36:42.867Z,5.90
2023-03-26T03:39:22.364Z,5.95
2023-03-26T03:41:50.288Z,4.82
2023-03-26T03:44:18.644Z,4.65
2023-03-26T03:46:53.866Z,4.47
2023-03-26T03:49:22.192Z,4.22
2023-03-26T03:51:50.204Z,4.50
2023-03-26T03:54:28.833Z,4.18
2023-03-26T03:57:15.933Z,4.55
2023-03-26T04:00:03.478Z,5.22
2023-03-26T04:02:46.175Z,4.45
2023-03-26T04:05:15.266Z,4.47
2023-03-26T04:07:47.602Z,4.47
2023-03-26T04:10:27.268Z,3.83
2023-03-26T04:13:21.276Z,4.28
2023-03-26T04:16:06.020Z,4.18
2023-03-26T04:18:36.631Z,4.15
2023-03-26T04:21:12.563Z,5.97
2023-03-26T04:23:40.396Z,4.38
2023-03-26T04:26:20.910Z,3.92
2023-03-26T04:29:06.979Z,4.68
2023-03-26T04:31:38.184Z,4.88
2023-03-26T04:34:13.619Z,4.00
2023-03-26T04:36:54.795Z,3.88
2023-03-26T04:39:29.892Z,3.30
2023-03-26T04:42:19.787Z,4.07
2023-03-26T04:45:03.068Z,3.63
2023-03-26T04:47:31.588Z,3.70
2023-03-26T04:50:00.667Z,6.13
2023-03-26T04:52:28.814Z,4.15
2023-03-26T04:55:36.394Z,3.95
2023-03-26T04:58:13.923Z,4.90
2023-03-26T05:01:10.166Z,4.97
2023-03-26T05:03:45.716Z,4.50
2023-03-26T05:06:18.620Z,3.70
2023-03-26T05:08:46.794Z,4.43
2023-03-26T05:11:27.619Z,4.60
2023-03-26T05:13:56.936Z,4.82
2023-03-26T05:16:25.862Z,4.55
2023-03-26T05:19:01.824Z,3.00
2023-03-26T05:21:35.249Z,3.63
2023-03-26T05:24:03.380Z,3.90
2023-03-26T05:26:31.103Z,4.10
2023-03-26T05:28:59.155Z,4.10
2023-03-26T05:31:36.024Z,4.15
2023-03-26T05:34:04.644Z,3.92
2023-03-26T05:36:32.530Z,4.13
2023-03-26T05:39:09.613Z,4.75
2023-03-26T05:42:03.573Z,4.40
2023-03-26T05:44:44.127Z,3.58
2023-03-26T05:47:22.887Z,4.40
2023-03-26T05:49:51.485Z,3.90
2023-03-26T05:52:19.438Z,3.08
2023-03-26T05:55:08.086Z,4.07
2023-03-26T05:57:58.994Z,4.30
2023-03-26T06:00:48.754Z,3.35
2023-03-26T06:03:25.746Z,3.60
2023-03-26T06:06:19.279Z,4.97
2023-03-26T06:09:01.431Z,4.38
2023-03-26T06:11:33.174Z,4.55
2023-03-26T06:14:02.781Z,3.35
2023-03-26T06:16:30.885Z,4.53
2023-03-26T06:19:12.365Z,5.10
2023-03-26T06:21:52.259Z,3.95
2023-03-26T06:24:38.836Z,3.60
2023-03-26T06:27:33.890Z,3.92
2023-03-26T06:30:20.290Z,2.72
2023-03-26T06:32:57.586Z,4.10
2023-03-26T06:35:29.820Z,3.25
2023-03-26T06:37:57.923Z,3.42
2023-03-26T06:40:26.136Z,3.67
2023-03-26T06:43:08.109Z,3.20
2023-03-26T06:46:07.037Z,3.50
2023-03-26T06:49:03.864Z,3.28
2023-03-26T06:51:41.154Z,3.25
2023-03-26T06:54:22.174Z,6.47
2023-03-26T06:56:50.060Z,4.07
2023-03-26T06:59:37.953Z,4.55
2023-03-26T07:02:24.389Z,2.75
2023-03-26T07:05:11.405Z,3.38
2023-03-26T07:07:57.754Z,3.97
2023-03-26T07:10:37.677Z,2.83
2023-03-26T07:13:25.391Z,3.45
2023-03-26T07:16:13.631Z,3.22
2023-03-26T07:18:55.897Z,3.63
2023-03-26T07:21:27.837Z,4.32
2023-03-26T07:23:56.692Z,3.10
2023-03-26T07:26:35.770Z,3.97
2023-03-26T07:29:27.515Z,4.35
2023-03-26T07:32:26.342Z,3.22
2023-03-26T07:35:15.569Z,3.65
2023-03-26T07:38:14.886Z,3.58
2023-03-26T07:41:02.200Z,3.95
2023-03-26T07:44:15.661Z,3.83
2023-03-26T07:46:55.469Z,4.78
2023-03-26T07:49:37.562Z,3.88
2023-03-26T07:52:32.498Z,3.45
2023-03-26T07:55:21.507Z,3.80
2023-03-26T07:58:23.717Z,3.00
2023-03-26T08:01:29.021Z,3.85
2023-03-26T08:04:24.257Z,3.58
2023-03-26T08:07:24.485Z,3.65
2023-03-26T08:10:19.040Z,3.60
2023-03-26T08:13:06.803Z,3.33
2023-03-26T08:15:39.083Z,4.00
2023-03-26T08:18:27.157Z,3.28
2023-03-26T08:20:59.305Z,3.67
2023-03-26T08:23:34.838Z,3.03
2023-03-26T08:26:10.264Z,3.33
2023-03-26T08:28:48.986Z,3.72
2023-03-26T08:31:19.396Z,3.88
2023-03-26T08:33:47.366Z,3.85
2023-03-26T08:36:14.998Z,3.45
2023-03-26T08:38:46.729Z,3.65
2023-03-26T08:41:51.155Z,2.97
2023-03-26T08:44:50.898Z,4.68
2023-03-26T08:47:56.979Z,3.65
2023-03-26T08:50:55.602Z,3.78
2023-03-26T08:54:06.105Z,4.32
2023-03-26T08:56:47.586Z,3.75
2023-03-26T08:59:41.944Z,3.97
2023-03-26T09:02:32.541Z,3.95
2023-03-26T09:05:26.176Z,4.53
2023-03-26T09:08:30.049Z,4.50
2023-03-26T09:11:12.193Z,3.97
2023-03-26T09:14:19.675Z,5.25
2023-03-26T09:17:17.238Z,3.40
2023-03-26T09:20:21.013Z,3.97
2023-03-26T09:23:33.268Z,3.58
2023-03-26T09:26:27.786Z,3.15
2023-03-26T09:29:38.402Z,3.25
2023-03-26T09:32:42.158Z,3.25
2023-03-26T09:35:14.617Z,3.13
2023-03-26T09:37:58.867Z,2.75
2023-03-26T09:40:37.799Z,3.47
2023-03-26T09:43:43.143Z,3.60
2023-03-26T09:46:27.347Z,3.50
2023-03-26T09:49:17.236Z,3.08
2023-03-26T09:52:16.358Z,2.95
2023-03-26T09:55:20.592Z,3.00
2023-03-26T09:58:00.879Z,2.70
2023-03-26T10:00:34.385Z,2.45
2023-03-26T10:03:21.864Z,2.65
2023-03-26T10:06:03.586Z,1.67
2023-03-26T10:08:47.444Z,3.22
2023-03-26T10:11:23.471Z,2.53
2023-03-26T10:14:03.667Z,4.38
2023-03-26T10:16:42.800Z,2.72
2023-03-26T10:19:32.356Z,1.90
2023-03-26T10:22:09.433Z,1.95
2023-03-26T10:24:52.590Z,2.58
2023-03-26T10:27:33.814Z,2.30
2023-03-26T10:30:21.717Z,2.10
2023-03-26T10:32:58.493Z,2.17
2023-03-26T10:35:40.735Z,1.90
2023-03-26T10:38:19.184Z,1.60
2023-03-26T10:40:59.860Z,2.17
2023-03-26T10:43:54.639Z,1.58
2023-03-26T10:46:55.246Z,2.05
2023-03-26T10:49:52.200Z,2.20
2023-03-26T10:52:24.371Z,1.85
2023-03-26T10:54:57.146Z,1.55
2023-03-26T10:57:36.219Z,1.20
2023-03-26T11:00:15.356Z,1.30
2023-03-26T11:02:49.888Z,1.40
2023-03-26T11:05:35.428Z,1.50
2023-03-26T11:08:08.322Z,1.27
2023-03-26T11:10:48.473Z,1.33
2023-03-26T11:13:23.018Z,1.73
2023-03-26T11:15:56.834Z,1.10
2023-03-26T11:18:32.764Z,1.20
2023-03-26T11:21:19.814Z,1.20
2023-03-26T11:24:05.270Z,1.88
2023-03-26T11:26:43.407Z,2.55
2023-03-26T11:29:31.348Z,1.20
2023-03-26T11:32:06.875Z,1.10
2023-03-26T11:34:39.533Z,1.48
2023-03-26T11:37:16.321Z,0.70
2023-03-26T11:39:52.439Z,0.93
2023-03-26T11:42:25.398Z,0.80
2023-03-26T11:44:57.115Z,1.10
2023-03-26T11:47:32.987Z,0.82
2023-03-26T11:50:03.300Z,1.20
2023-03-26T11:52:30.948Z,1.25
2023-03-26T11:54:59.920Z,0.85
2023-03-26T11:57:33.009Z,1.00
2023-03-26T12:00:07.926Z,1.05
2023-03-26T12:02:41.790Z,0.73
2023-03-26T12:05:16.279Z,0.70
2023-03-26T12:07:47.666Z,1.30
2023-03-26T12:10:29.747Z,0.80
2023-03-26T12:13:00.007Z,0.80
2023-03-26T12:15:30.744Z,0.80
2023-03-26T12:17:59.328Z,1.15
2023-03-26T12:20:38.611Z,0.93
2023-03-26T12:23:08.114Z,0.90
2023-03-26T12:25:39.120Z,0.80
2023-03-26T12:28:18.620Z,0.85
2023-03-26T12:30:54.822Z,0.80
2023-03-26T12:33:26.891Z,0.90
2023-03-26T12:35:57.789Z,0.73
2023-03-26T12:38:33.093Z,1.20
2023-03-26T12:41:08.481Z,0.70
2023-03-26T12:44:51.386Z,0.75
2023-03-26T12:47:57.023Z,0.75
2023-03-26T12:49:35.219Z,0.80
2023-03-26T12:52:18.581Z,0.80
2023-03-26T12:54:52.490Z,0.80
2023-03-26T12:57:23.942Z,0.87
2023-03-26T13:00:07.542Z,0.70
2023-03-26T13:03:02.790Z,0.93
2023-03-26T13:06:08.570Z,0.80
2023-03-26T13:09:06.518Z,0.60
2023-03-26T13:11:43.997Z,0.60
2023-03-26T13:14:43.970Z,0.60
2023-03-26T13:17:22.661Z,0.60
2023-03-26T13:19:59.468Z,0.60
2023-03-26T13:22:36.433Z,0.70
2023-03-26T13:25:17.960Z,0.60
2023-03-26T13:27:57.513Z,0.63
2023-03-26T13:30:33.356Z,0.90
2023-03-26T13:33:12.179Z,0.60
2023-03-26T13:35:48.210Z,0.70
2023-03-26T13:38:26.894Z,0.60
2023-03-26T13:41:03.038Z,0.90
2023-03-26T13:43:42.241Z,0.73
2023-03-26T13:46:21.244Z,0.70
2023-03-26T13:48:54.774Z,0.60
2023-03-26T13:51:27.432Z,0.70
2023-03-26T13:54:00.362Z,0.70
2023-03-26T13:56:34.585Z,0.70
2023-03-26T13:59:05.925Z,0.80
2023-03-26T14:01:43.271Z,1.00
2023-03-26T14:04:19.224Z,1.00
2023-03-26T14:06:53.984Z,0.70
2023-03-26T14:09:27.740Z,0.87
2023-03-26T14:12:21.182Z,0.70
2023-03-26T14:14:54.345Z,0.80
2023-03-26T14:17:29.392Z,0.87
2023-03-26T14:20:26.973Z,0.90
2023-03-26T14:23:08.625Z,0.90
2023-03-26T14:25:51.498Z,0.87
2023-03-26T14:28:43.271Z,0.70
2023-03-26T14:31:23.611Z,0.80
2023-03-26T14:34:07.091Z,1.10
2023-03-26T14:36:53.915Z,0.97
2023-03-26T14:39:44.106Z,0.97
2023-03-26T14:42:20.294Z,0.93
2023-03-26T14:45:02.577Z,1.63
2023-03-26T14:47:31.441Z,0.80
2023-03-26T14:50:35.892Z,0.90
2023-03-26T14:53:12.784Z,1.00
2023-03-26T14:55:57.916Z,1.10
2023-03-26T14:58:54.546Z,1.40
2023-03-26T15:01:26.587Z,0.90
2023-03-26T15:04:43.585Z,1.03
2023-03-26T15:07:34.333Z,1.00
2023-03-26T15:10:23.600Z,1.10
2023-03-26T15:13:20.299Z,1.00
2023-03-26T15:16:12.565Z,2.10
2023-03-26T15:19:09.733Z,2.00
2023-03-26T15:22:02.114Z,1.55
2023-03-26T15:25:06.777Z,1.75
2023-03-26T15:27:51.930Z,2.15
2023-03-26T15:31:06.552Z,2.03
2023-03-26T15:33:57.316Z,1.35
2023-03-26T15:37:17.115Z,1.58
2023-03-26T15:40:09.147Z,2.30
2023-03-26T15:42:46.570Z,2.15
2023-03-26T15:45:26.944Z,2.65
2023-03-26T15:48:10.415Z,2.78
2023-03-26T15:50:49.075Z,2.22
2023-03-26T15:53:29.001Z,2.50
2023-03-26T15:56:11.328Z,2.83
2023-03-26T15:58:48.403Z,2.50
2023-03-26T16:01:28.650Z,1.92
2023-03-26T16:04:09.027Z,2.00
2023-03-26T16:06:46.821Z,1.90
2023-03-26T16:09:31.080Z,2.45
2023-03-26T16:11:59.997Z,1.35
2023-03-26T16:14:43.914Z,2.22
2023-03-26T16:17:17.502Z,1.52
2023-03-26T16:19:59.070Z,1.70
2023-03-26T16:22:46.457Z,1.75
2023-03-26T16:25:28.208Z,1.70
2023-03-26T16:28:29.208Z,1.58
2023-03-26T16:31:36.763Z,1.50
2023-03-26T16:34:29.567Z,3.13
2023-03-26T16:37:00.046Z,1.92
2023-03-26T16:39:40.959Z,2.65
2023-03-26T16:42:31.603Z,2.85
2023-03-26T16:45:18.816Z,3.80
2023-03-26T16:47:54.997Z,4.22
2023-03-26T16:50:33.512Z,5.00
2023-03-26T16:53:17.019Z,5.20
2023-03-26T16:55:52.739Z,6.43
2023-03-26T16:58:33.005Z,5.10
2023-03-26T17:01:09.711Z,5.40
2023-03-26T17:03:50.774Z,7.65
2023-03-26T17:06:34.340Z,7.55
2023-03-26T17:09:06.244Z,6.30
2023-03-26T17:11:44.806Z,6.15
2023-03-26T17:14:32.274Z,6.15
2023-03-26T17:17:12.689Z,6.57
2023-03-26T17:19:52.441Z,5.50
2023-03-26T17:22:34.536Z,6.40
2023-03-26T17:25:12.706Z,5.80
2023-03-26T17:28:08.300Z,5.68
2023-03-26T17:31:03.213Z,6.60
2023-03-26T17:33:34.659Z,5.25
2023-03-26T17:36:28.863Z,5.43
2023-03-26T17:39:22.045Z,4.55
2023-03-26T17:41:56.409Z,4.50
2023-03-26T17:44:45.795Z,4.57
2023-03-26T17:47:26.359Z,3.92
2023-03-26T17:49:59.218Z,4.05
2023-03-26T17:52:36.573Z,4.32
2023-03-26T17:55:05.392Z,3.60
2023-03-26T17:57:41.848Z,4.25
2023-03-26T18:00:18.182Z,4.03
2023-03-26T18:02:53.960Z,5.40
2023-03-26T18:05:22.928Z,5.03
2023-03-26T18:08:17.105Z,4.55
2023-03-26T18:11:09.709Z,4.38
2023-03-26T18:14:00.644Z,5.90
2023-03-26T18:16:39.829Z,4.28
2023-03-26T18:19:18.151Z,4.65
2023-03-26T18:21:50.052Z,4.72
2023-03-26T18:24:24.389Z,4.35
2023-03-26T18:26:56.292Z,4.38
2023-03-26T18:29:26.309Z,4.18
2023-03-26T18:31:55.975Z,3.65
2023-03-26T18:34:26.060Z,4.78
2023-03-26T18:37:16.534Z,5.00
2023-03-26T18:39:58.161Z,4.25
2023-03-26T18:42:26.977Z,6.00
2023-03-26T18:44:59.842Z,4.43
2023-03-26T18:47:30.920Z,4.30
2023-03-26T18:50:00.165Z,4.90
2023-03-26T18:52:31.143Z,3.97
2023-03-26T18:55:00.893Z,3.72
2023-03-26T18:57:29.994Z,4.20
2023-03-26T19:00:13.524Z,4.22
2023-03-26T19:02:41.331Z,3.53
2023-03-26T19:05:15.165Z,5.57
2023-03-26T19:07:43.784Z,3.65
2023-03-26T19:10:18.850Z,3.75
2023-03-26T19:12:47.187Z,3.40
2023-03-26T19:15:17.633Z,3.45
2023-03-26T19:17:48.036Z,3.15
2023-03-26T19:20:19.404Z,3.30
2023-03-26T19:22:48.625Z,3.78
2023-03-26T19:25:22.721Z,3.60
2023-03-26T19:27:51.683Z,3.30
2023-03-26T19:30:29.019Z,3.28
2023-03-26T19:33:13.104Z,3.35
2023-03-26T19:35:42.425Z,3.80
2023-03-26T19:38:25.982Z,3.30
2023-03-26T19:40:56.605Z,3.97
2023-03-26T19:43:25.638Z,3.00
2023-03-26T19:45:59.702Z,2.80
2023-03-26T19:51:18.704Z,3.35
2023-03-26T19:51:23.922Z,5.50
2023-03-26T19:53:54.798Z,3.53
2023-03-26T19:56:23.974Z,3.65
2023-03-26T19:58:52.316Z,3.70
2023-03-26T20:01:22.061Z,4.07
2023-03-26T20:03:52.630Z,3.30
2023-03-26T20:06:30.908Z,3.28
2023-03-26T20:09:04.060Z,3.22
2023-03-26T20:11:36.698Z,3.75
2023-03-26T20:14:12.401Z,3.70
2023-03-26T20:16:41.658Z,4.40
2023-03-26T20:19:10.947Z,2.75
2023-03-26T20:21:39.871Z,2.90
2023-03-26T20:24:12.603Z,3.67
2023-03-26T20:26:41.796Z,2.35
2023-03-26T20:29:10.057Z,2.78
2023-03-26T20:31:38.194Z,3.33
2023-03-26T20:34:07.580Z,3.05
2023-03-26T20:36:35.998Z,3.05
2023-03-26T20:39:06.469Z,2.20
2023-03-26T20:41:35.368Z,3.40
2023-03-26T20:44:05.713Z,2.80
2023-03-26T20:46:33.526Z,2.47
2023-03-26T20:49:01.219Z,2.85
2023-03-26T20:51:29.188Z,2.17
2023-03-26T20:53:57.194Z,2.83
2023-03-26T20:56:24.962Z,2.50
2023-03-26T20:59:09.707Z,3.80
2023-03-26T21:01:40.276Z,2.30
2023-03-26T21:04:08.367Z,2.65
2023-03-26T21:06:35.980Z,3.08
2023-03-26T21:09:04.068Z,2.33
2023-03-26T21:11:45.229Z,2.00
2023-03-26T21:14:19.031Z,2.53
2023-03-26T21:16:48.905Z,1.92
2023-03-26T21:19:17.037Z,2.47
2023-03-26T21:22:02.983Z,2.30
2023-03-26T21:24:45.591Z,3.80
2023-03-26T21:27:22.202Z,2.40
2023-03-26T21:29:50.345Z,2.10
2023-03-26T21:32:20.300Z,2.13
2023-03-26T21:34:58.082Z,2.47
2023-03-26T21:37:27.910Z,2.45
2023-03-26T21:39:56.551Z,2.35
2023-03-26T21:42:26.700Z,2.50
2023-03-26T21:44:54.925Z,1.75
2023-03-26T21:47:24.450Z,2.45
2023-03-26T21:49:54.626Z,1.80
2023-03-26T21:52:23.791Z,2.10
2023-03-26T21:54:52.355Z,3.13
2023-03-26T21:57:37.409Z,3.53
2023-03-26T22:00:14.546Z,2.20
2023-03-26T22:02:54.863Z,2.10
2023-03-26T22:05:29.298Z,2.83
2023-03-26T22:07:59.960Z,3.08
2023-03-26T22:10:27.719Z,2.33
2023-03-26T22:12:55.418Z,2.83
2023-03-26T22:15:25.771Z,2.40
2023-03-26T22:17:55.635Z,2.15
2023-03-26T22:20:25.059Z,2.38
2023-03-26T22:22:55.030Z,3.53
2023-03-26T22:25:24.214Z,2.53
2023-03-26T22:27:53.829Z,2.53
2023-03-26T22:30:21.781Z,2.50
2023-03-26T22:32:50.143Z,3.20
2023-03-26T22:35:19.423Z,1.92
2023-03-26T22:37:47.360Z,2.85
2023-03-26T22:40:15.158Z,2.35
2023-03-26T22:42:42.897Z,2.63
2023-03-26T22:45:12.376Z,3.05
2023-03-26T22:47:40.787Z,2.35
2023-03-26T22:50:09.795Z,4.05
2023-03-26T22:52:40.585Z,2.38
2023-03-26T22:55:09.113Z,2.70
2023-03-26T22:57:36.740Z,2.78
2023-03-26T23:00:16.027Z,2.80
2023-03-26T23:02:45.710Z,2.05
2023-03-26T23:05:14.024Z,2.45
2023-03-26T23:07:43.586Z,2.63
2023-03-26T23:10:12.256Z,2.13
2023-03-26T23:12:40.069Z,2.53
2023-03-26T23:15:09.576Z,3.00
2023-03-26T23:17:38.557Z,2.38
2023-03-26T23:20:14.513Z,2.63
2023-03-26T23:22:44.705Z,3.20
2023-03-26T23:25:12.655Z,3.95
2023-03-26T23:27:41.211Z,2.60
2023-03-26T23:30:10.941Z,2.67
2023-03-26T23:32:38.743Z,2.75
2023-03-26T23:35:07.323Z,2.15
2023-03-26T23:37:35.432Z,3.13
2023-03-26T23:40:09.849Z,3.25
2023-03-26T23:42:38.193Z,2.60
2023-03-26T23:45:06.708Z,2.95
2023-03-26T23:47:35.121Z,2.97
2023-03-26T23:50:03.461Z,2.20
2023-03-26T23:52:31.832Z,1.90
2023-03-26T23:54:59.854Z,2.97
2023-03-26T23:57:28.976Z,2.10
2023-03-26T23:59:56.604Z,2.25
